createdAt,value
2018-09-19T00:01:54.110Z,17.9
2018-09-19T00:14:13.132Z,17.8
2018-09-19T00:24:52.026Z,17.8
2018-09-19T00:38:50.205Z,17.7
2018-09-19T00:49:35.151Z,17.7
2018-09-19T01:00:21.617Z,17.7
2018-09-19T01:10:54.210Z,17.6
2018-09-19T01:21:35.023Z,17.5
2018-09-19T01:32:05.512Z,17.4
2018-09-19T01:42:58.485Z,17.2
2018-09-19T01:54:10.777Z,17.2
2018-09-19T02:05:22.505Z,17.0
2018-09-19T02:18:29.756Z,16.9
2018-09-19T02:29:59.078Z,16.8
2018-09-19T02:41:26.935Z,16.6
2018-09-19T02:52:41.040Z,16.5
2018-09-19T03:16:21.655Z,16.1
2018-09-19T03:28:32.896Z,16.0
2018-09-19T03:39:47.397Z,15.9
2018-09-19T03:52:33.248Z,15.7
2018-09-19T04:03:52.804Z,15.6
2018-09-19T04:36:16.450Z,15.3
2018-09-19T04:48:10.664Z,15.1
2018-09-19T04:58:59.895Z,15.0
2018-09-19T05:11:15.376Z,14.9
2018-09-19T05:21:42.100Z,14.8
2018-09-19T05:32:17.856Z,14.7
2018-09-19T05:42:48.738Z,14.7
2018-09-19T05:53:19.200Z,14.7
2018-09-19T06:03:54.612Z,14.7
2018-09-19T06:14:09.012Z,14.8
2018-09-19T06:24:25.102Z,14.9
2018-09-19T06:35:05.253Z,15.1
2018-09-19T06:45:51.408Z,15.4
2018-09-19T06:56:17.782Z,15.4
2018-09-19T07:08:01.509Z,16.1
2018-09-19T07:20:13.480Z,16.5
2018-09-19T07:30:43.073Z,16.5
2018-09-19T07:43:10.390Z,19.1
2018-09-19T07:54:37.254Z,19.1
2018-09-19T08:04:51.389Z,21.4
2018-09-19T08:15:16.574Z,22.7
2018-09-19T08:25:47.947Z,23.7
2018-09-19T08:36:02.569Z,25.0
2018-09-19T08:46:48.155Z,28.0
2018-09-19T08:58:30.264Z,29.4
2018-09-19T09:08:54.067Z,29.4
2018-09-19T09:19:42.896Z,30.7
2018-09-19T09:30:53.992Z,32.6
2018-09-19T09:42:30.532Z,32.6
2018-09-19T09:52:44.812Z,33.6
2018-09-19T10:03:35.131Z,34.9
2018-09-19T10:15:03.076Z,35.3
2018-09-19T10:26:35.778Z,34.8
2018-09-19T10:38:05.530Z,33.8
2018-09-19T10:48:51.817Z,33.4
2018-09-19T11:06:00.249Z,32.9
2018-09-19T11:17:13.102Z,32.3
2018-09-19T11:46:54.071Z,31.1
2018-09-19T11:57:08.776Z,31.1
2018-09-19T12:08:51.624Z,31.1
2018-09-19T12:31:38.261Z,33.1
2018-09-19T12:41:53.132Z,33.1
2018-09-19T12:52:39.090Z,33.3
2018-09-19T13:13:39.045Z,33.4
2018-09-19T13:23:51.531Z,33.4
2018-09-19T13:34:08.120Z,33.6
2018-09-19T13:44:52.849Z,33.8
2018-09-19T13:55:07.266Z,33.9
2018-09-19T14:05:52.339Z,34.0
2018-09-19T14:16:06.493Z,34.0
2018-09-19T14:26:21.055Z,34.1
2018-09-19T14:36:32.954Z,34.2
2018-09-19T14:46:47.640Z,34.2
2018-09-19T14:57:00.231Z,34.2
2018-09-19T15:07:13.608Z,34.0
2018-09-19T15:17:24.953Z,33.8
2018-09-19T15:27:39.670Z,33.4
2018-09-19T15:38:24.918Z,32.0
2018-09-19T15:49:09.521Z,31.3
2018-09-19T15:59:23.325Z,31.3
2018-09-19T16:09:38.213Z,30.7
2018-09-19T16:19:52.879Z,30.1
2018-09-19T16:30:07.005Z,29.5
2018-09-19T16:40:28.496Z,29.0
2018-09-19T16:50:42.021Z,28.5
2018-09-19T17:01:27.994Z,27.5
2018-09-19T17:11:42.781Z,27.5
2018-09-19T17:21:56.298Z,27.0
2018-09-19T17:32:10.509Z,26.6
2018-09-19T17:53:12.779Z,25.7
2018-09-19T18:03:58.329Z,24.9
2018-09-19T18:14:13.339Z,24.8
2018-09-19T18:24:27.854Z,24.5
2018-09-19T18:35:13.374Z,23.8
2018-09-19T18:45:27.460Z,23.8
2018-09-19T18:56:12.961Z,23.1
2018-09-19T19:06:27.251Z,23.1
2018-09-19T19:16:40.455Z,22.8
2018-09-19T19:26:52.637Z,22.5
2018-09-19T19:37:06.129Z,22.2
2018-09-19T19:47:22.806Z,22.0
2018-09-19T19:57:36.704Z,21.7
2018-09-19T20:07:48.062Z,21.5
2018-09-19T20:18:02.144Z,21.3
2018-09-19T20:28:47.677Z,20.9
2018-09-19T20:39:21.736Z,20.9
2018-09-19T20:49:35.040Z,20.8
2018-09-19T21:00:19.789Z,20.5
2018-09-19T21:10:33.292Z,20.5
2018-09-19T21:20:45.563Z,20.5
2018-09-19T21:30:59.867Z,20.3
2018-09-19T21:41:45.216Z,20.1
2018-09-19T21:51:59.387Z,20.1
2018-09-19T22:02:14.211Z,20.0
2018-09-19T22:12:27.897Z,19.9
2018-09-19T22:22:41.994Z,19.9
2018-09-19T22:32:56.384Z,19.8
2018-09-19T22:43:10.390Z,19.7
2018-09-19T22:53:24.008Z,19.6
2018-09-19T23:03:38.093Z,19.6
2018-09-19T23:13:50.210Z,19.5
2018-09-19T23:24:05.157Z,19.4
2018-09-19T23:34:50.200Z,19.2
2018-09-19T23:45:35.954Z,19.1
2018-09-19T23:55:50.213Z,19.1
